This is the latest recevied weather packets stored in our database for station/object VK5TRM-14. If no packets are shown the sender has not sent any weather packets the latest 10 day(s).
| Time | Temp. | Humidity | Pressure | Rain* | Wind** | Luminosity | Snow |
|---|---|---|---|---|---|---|---|
| 1777490105 | 10.56° C | 60% | 1023.1 hPa | 0 mm | - | - | - |
| 1777489205 | 11.11° C | 59% | 1023.1 hPa | 0 mm | - | - | - |
| 1777488305 | 11.11° C | 59% | 1023.1 hPa | 0 mm | - | - | - |
| 1777487405 | 12.22° C | 58% | 1023.1 hPa | 0 mm | - | - | - |
| 1777486505 | 12.22° C | 58% | 1023.1 hPa | 0 mm | - | - | - |
| 1777485605 | 12.22° C | 57% | 1023.3 hPa | 0 mm | - | - | - |
| 1777484705 | 12.22° C | 57% | 1023.3 hPa | 0 mm | - | - | - |
| 1777483805 | 12.22° C | 53% | 1023.3 hPa | 0 mm | - | - | - |
| 1777482905 | 12.22° C | 53% | 1023.3 hPa | 0 mm | - | - | - |
| 1777482005 | 12.78° C | 52% | 1023.6 hPa | 0 mm | - | - | - |
| 1777481105 | 12.78° C | 52% | 1023.6 hPa | 0 mm | - | - | - |
| 1777480205 | 12.78° C | 51% | 1023.8 hPa | 0 mm | - | - | - |
| 1777479305 | 12.78° C | 51% | 1023.8 hPa | 0 mm | - | - | - |
| 1777478405 | 13.89° C | 47% | 1023.7 hPa | 0 mm | - | - | - |
| 1777477505 | 13.89° C | 47% | 1023.7 hPa | 0 mm | - | - | - |
| 1777476605 | 13.89° C | 49% | 1023.9 hPa | 0 mm | - | - | - |
| 1777475705 | 13.89° C | 49% | 1023.9 hPa | 0 mm | - | - | - |
| 1777474805 | 15.56° C | 47% | 1024 hPa | 0 mm | - | - | - |
| 1777473905 | 15.56° C | 47% | 1024 hPa | 0 mm | - | - | - |
| 1777473005 | 12.78° C | 50% | 1024.1 hPa | 0 mm | - | - | - |
| 1777472105 | 12.78° C | 50% | 1024.1 hPa | 0 mm | - | - | - |
| 1777471205 | 12.78° C | 50% | 1024.2 hPa | 0 mm | - | - | - |
| 1777470304 | 12.78° C | 50% | 1024.2 hPa | 0 mm | - | - | - |
| 1777469405 | 13.33° C | 48% | 1024.3 hPa | 0 mm | - | - | - |
| 1777468505 | 13.33° C | 48% | 1024.3 hPa | 0 mm | - | - | - |
* Rain since midnight (hover to see other rain measurements)
** Current wind speed in m/s (hover to see current wind gust speed)